Enterprise, Alabama
Current Conditions -  °F | °C
As of 3:56 PM on Tuesday 25 Nov 2014 (Local Time) from KSXS Reporting Station
Rain Showers Rain Showers  
Wind Chill: 51°   Ceiling: 10000
Heat Index: 51°   Visibility: 10mi
Dew Point: 44°   Wind: 0mph
Humidity: 77%   Direction: NA
Pressure: 30.08"   Gusts: NA
Location:  31.32°N, 85.85°W
Report Text: KSXS 252156Z AUTO 00000KT 10SM -SHRA FEW050 BKN100 11/07 A3008 RMK AO2 SLP188 T01070068
Loading
Personal Weather Stations






























Interactive Weather Map New forecast layout! Learn more

10-Day Weather Forecast

Advertisements
Track Severe Weather on mobile